createdAt,value
2023-05-14T00:00:41.190Z,21.90
2023-05-14T00:02:44.697Z,19.30
2023-05-14T00:04:48.597Z,18.40
2023-05-14T00:06:52.001Z,20.50
2023-05-14T00:08:55.279Z,19.47
2023-05-14T00:11:00.150Z,17.47
2023-05-14T00:13:03.700Z,19.20
2023-05-14T00:15:08.420Z,17.03
2023-05-14T00:17:11.635Z,17.77
2023-05-14T00:19:15.151Z,15.03
2023-05-14T00:21:18.593Z,17.13
2023-05-14T00:23:22.090Z,17.10
2023-05-14T00:25:25.687Z,16.93
2023-05-14T00:27:31.136Z,15.00
2023-05-14T00:29:34.474Z,16.33
2023-05-14T00:31:37.831Z,16.70
2023-05-14T00:33:41.641Z,17.43
2023-05-14T00:35:45.113Z,16.07
2023-05-14T00:37:48.912Z,15.73
2023-05-14T00:39:52.340Z,17.20
2023-05-14T00:41:56.005Z,14.93
2023-05-14T00:44:01.049Z,16.17
2023-05-14T00:46:04.363Z,15.70
2023-05-14T00:48:08.438Z,15.70
2023-05-14T00:50:13.538Z,16.20
2023-05-14T00:52:17.733Z,14.10
2023-05-14T00:54:22.088Z,14.33
2023-05-14T00:56:25.788Z,14.50
2023-05-14T00:58:29.081Z,15.50
2023-05-14T01:00:33.724Z,13.50
2023-05-14T01:02:37.058Z,13.60
2023-05-14T01:04:40.702Z,12.10
2023-05-14T01:06:52.482Z,12.60
2023-05-14T01:09:04.806Z,11.87
2023-05-14T01:11:12.519Z,11.60
2023-05-14T01:13:34.921Z,11.50
2023-05-14T01:15:41.419Z,11.53
2023-05-14T01:17:47.883Z,11.20
2023-05-14T01:19:52.774Z,12.73
2023-05-14T01:21:57.500Z,11.03
2023-05-14T01:24:00.803Z,11.20
2023-05-14T01:26:04.072Z,12.50
2023-05-14T01:28:14.238Z,11.70
2023-05-14T01:30:23.910Z,11.50
2023-05-14T01:32:28.146Z,11.40
2023-05-14T01:34:32.838Z,10.80
2023-05-14T01:36:37.436Z,11.33
2023-05-14T01:38:45.874Z,10.50
2023-05-14T01:40:50.349Z,10.40
2023-05-14T01:42:54.722Z,10.40
2023-05-14T01:44:58.800Z,9.30
2023-05-14T01:47:03.620Z,8.70
2023-05-14T01:49:06.886Z,9.60
2023-05-14T01:51:10.480Z,8.80
2023-05-14T01:53:13.975Z,7.80
2023-05-14T01:55:19.692Z,7.80
2023-05-14T01:57:22.911Z,6.83
2023-05-14T01:59:26.350Z,7.67
2023-05-14T02:01:29.745Z,7.67
2023-05-14T02:03:33.404Z,7.70
2023-05-14T02:05:36.687Z,7.70
2023-05-14T02:07:40.145Z,7.40
2023-05-14T02:09:43.376Z,6.60
2023-05-14T02:11:47.988Z,7.70
2023-05-14T02:13:51.656Z,8.13
2023-05-14T02:15:55.118Z,9.70
2023-05-14T02:17:58.450Z,9.60
2023-05-14T02:20:01.669Z,9.90
2023-05-14T02:22:05.119Z,10.77
2023-05-14T02:24:08.683Z,11.13
2023-05-14T02:26:12.472Z,11.37
2023-05-14T02:28:17.037Z,13.63
2023-05-14T02:30:20.421Z,15.47
2023-05-14T02:32:23.810Z,14.40
2023-05-14T02:34:27.162Z,15.37
2023-05-14T02:36:30.798Z,14.27
2023-05-14T02:38:34.056Z,14.50
2023-05-14T02:40:38.733Z,18.30
2023-05-14T02:42:41.926Z,19.40
2023-05-14T02:44:47.161Z,19.57
2023-05-14T02:46:50.637Z,18.10
2023-05-14T02:48:54.178Z,18.47
2023-05-14T02:50:57.506Z,20.47
2023-05-14T02:53:01.839Z,20.30
2023-05-14T02:55:05.790Z,19.77
2023-05-14T02:57:09.033Z,19.57
2023-05-14T02:59:12.583Z,20.90
2023-05-14T03:01:19.260Z,19.37
2023-05-14T03:03:23.179Z,21.93
2023-05-14T03:05:27.355Z,20.87
2023-05-14T03:07:30.620Z,22.30
2023-05-14T03:09:34.239Z,21.03
2023-05-14T03:11:39.193Z,22.07
2023-05-14T03:13:42.472Z,22.90
2023-05-14T03:15:46.971Z,25.33
2023-05-14T03:17:51.773Z,23.93
2023-05-14T03:19:55.028Z,24.40
2023-05-14T03:21:58.492Z,23.87
2023-05-14T03:24:01.939Z,25.43
2023-05-14T03:26:05.222Z,22.47
2023-05-14T03:28:08.460Z,23.63
2023-05-14T03:30:13.032Z,22.97
2023-05-14T03:32:16.486Z,22.37
2023-05-14T03:34:21.318Z,24.90
2023-05-14T03:36:24.553Z,22.60
2023-05-14T03:38:28.067Z,21.30
2023-05-14T03:40:31.896Z,25.63
2023-05-14T03:42:35.228Z,23.73
2023-05-14T03:44:38.484Z,22.00
2023-05-14T03:46:42.475Z,22.70
2023-05-14T03:48:45.811Z,22.93
2023-05-14T03:50:51.360Z,22.73
2023-05-14T03:52:55.130Z,21.50
2023-05-14T03:54:58.430Z,22.50
2023-05-14T03:57:02.204Z,24.20
2023-05-14T03:59:05.818Z,22.93
2023-05-14T04:01:09.250Z,24.50
2023-05-14T04:03:12.587Z,21.33
2023-05-14T04:05:15.978Z,20.83
2023-05-14T04:07:20.808Z,21.27
2023-05-14T04:09:24.420Z,23.90
2023-05-14T04:11:27.795Z,21.80
2023-05-14T04:13:31.305Z,20.83
2023-05-14T04:15:35.667Z,21.13
2023-05-14T04:17:39.154Z,19.30
2023-05-14T04:19:42.490Z,18.43
2023-05-14T04:21:45.760Z,19.53
2023-05-14T04:23:50.815Z,19.37
2023-05-14T04:25:54.356Z,20.27
2023-05-14T04:27:58.211Z,18.30
2023-05-14T04:30:01.402Z,17.93
2023-05-14T04:32:05.300Z,18.53
2023-05-14T04:34:08.537Z,18.97
2023-05-14T04:36:11.875Z,16.67
2023-05-14T04:38:15.396Z,16.80
2023-05-14T04:40:20.443Z,17.23
2023-05-14T04:42:23.713Z,15.90
2023-05-14T04:44:27.138Z,15.77
2023-05-14T04:46:30.626Z,14.90
2023-05-14T04:48:33.976Z,15.90
2023-05-14T04:50:37.269Z,15.47
2023-05-14T04:52:40.866Z,15.93
2023-05-14T04:54:44.446Z,14.40
2023-05-14T04:56:49.430Z,16.00
2023-05-14T04:58:52.988Z,14.63
2023-05-14T05:00:56.395Z,15.50
2023-05-14T05:02:59.757Z,16.13
2023-05-14T05:05:04.238Z,15.40
2023-05-14T05:07:07.594Z,14.70
2023-05-14T05:09:11.545Z,14.63
2023-05-14T05:11:14.747Z,15.63
2023-05-14T05:13:19.526Z,14.37
2023-05-14T05:15:23.695Z,13.57
2023-05-14T05:17:28.554Z,13.60
2023-05-14T05:19:42.466Z,13.40
2023-05-14T05:21:46.790Z,13.20
2023-05-14T05:23:50.143Z,12.73
2023-05-14T05:25:53.813Z,12.77
2023-05-14T05:27:57.077Z,12.50
2023-05-14T05:30:03.953Z,14.47
2023-05-14T05:32:08.439Z,14.90
2023-05-14T05:34:11.818Z,11.60
2023-05-14T05:36:15.364Z,14.80
2023-05-14T05:38:19.387Z,12.60
2023-05-14T05:40:22.908Z,14.03
2023-05-14T05:42:26.660Z,13.20
2023-05-14T05:44:29.985Z,12.03
2023-05-14T05:46:34.668Z,12.30
2023-05-14T05:48:38.226Z,12.00
2023-05-14T05:50:41.454Z,11.83
2023-05-14T05:52:44.740Z,11.63
2023-05-14T05:54:48.236Z,10.17
2023-05-14T05:56:51.852Z,11.00
2023-05-14T05:58:55.228Z,10.33
2023-05-14T06:00:59.340Z,10.93
2023-05-14T06:03:04.042Z,9.77
2023-05-14T06:05:08.663Z,10.60
2023-05-14T06:07:12.088Z,11.47
2023-05-14T06:09:16.286Z,10.50
2023-05-14T06:11:19.906Z,8.47
2023-05-14T06:13:23.397Z,10.07
2023-05-14T06:15:26.742Z,10.07
2023-05-14T06:17:30.215Z,10.73
2023-05-14T06:19:34.991Z,10.27
2023-05-14T06:21:38.503Z,10.07
2023-05-14T06:23:42.308Z,9.87
2023-05-14T06:25:45.739Z,9.30
2023-05-14T06:27:49.303Z,11.57
2023-05-14T06:29:52.811Z,12.40
2023-05-14T06:31:56.446Z,9.47
2023-05-14T06:34:00.193Z,11.47
2023-05-14T06:36:09.268Z,10.07
2023-05-14T06:38:12.560Z,9.33
2023-05-14T06:40:17.017Z,9.50
2023-05-14T06:42:20.717Z,8.73
2023-05-14T06:44:24.049Z,10.87
2023-05-14T06:46:27.299Z,9.50
2023-05-14T06:48:30.990Z,9.53
2023-05-14T06:50:34.898Z,8.93
2023-05-14T06:52:40.348Z,8.40
2023-05-14T06:54:43.773Z,7.50
2023-05-14T06:56:47.735Z,7.80
2023-05-14T06:58:51.550Z,7.63
2023-05-14T07:00:54.953Z,7.43
2023-05-14T07:02:58.589Z,7.33
2023-05-14T07:05:02.151Z,7.33
2023-05-14T07:07:05.927Z,6.57
2023-05-14T07:09:12.394Z,7.23
2023-05-14T07:11:15.896Z,6.50
2023-05-14T07:13:19.214Z,6.80
2023-05-14T07:15:23.123Z,7.60
2023-05-14T07:17:29.667Z,6.60
2023-05-14T07:19:33.772Z,6.90
2023-05-14T07:21:37.294Z,6.33
2023-05-14T07:23:40.534Z,6.03
2023-05-14T07:25:45.496Z,6.40
2023-05-14T07:27:48.759Z,6.87
2023-05-14T07:29:52.062Z,5.73
2023-05-14T07:31:55.391Z,6.60
2023-05-14T07:33:58.680Z,6.07
2023-05-14T07:36:02.019Z,6.83
2023-05-14T07:38:06.431Z,5.87
2023-05-14T07:40:11.022Z,4.50
2023-05-14T07:42:22.069Z,5.53
2023-05-14T07:44:35.413Z,3.87
2023-05-14T07:46:38.648Z,3.47
2023-05-14T07:48:42.030Z,3.73
2023-05-14T07:50:45.368Z,4.50
2023-05-14T07:52:48.860Z,4.07
2023-05-14T07:54:53.309Z,4.40
2023-05-14T07:56:56.524Z,3.90
2023-05-14T07:59:02.185Z,4.30
2023-05-14T08:01:07.364Z,3.87
2023-05-14T08:03:10.868Z,3.30
2023-05-14T08:05:14.446Z,3.53
2023-05-14T08:07:17.811Z,2.83
2023-05-14T08:09:21.194Z,2.93
2023-05-14T08:11:24.408Z,2.57
2023-05-14T08:13:27.715Z,3.20
2023-05-14T08:15:32.684Z,2.60
2023-05-14T08:17:36.016Z,2.80
2023-05-14T08:19:39.541Z,2.33
2023-05-14T08:21:42.885Z,2.40
2023-05-14T08:23:46.174Z,2.20
2023-05-14T08:25:49.965Z,1.60
2023-05-14T08:27:54.273Z,1.50
2023-05-14T08:29:57.680Z,1.90
2023-05-14T08:32:11.663Z,1.53
2023-05-14T08:34:23.011Z,2.17
2023-05-14T08:36:26.989Z,1.93
2023-05-14T08:38:30.200Z,1.97
2023-05-14T08:40:33.782Z,2.00
2023-05-14T08:42:40.750Z,2.73
2023-05-14T08:44:50.601Z,2.20
2023-05-14T08:46:56.246Z,2.40
2023-05-14T08:49:06.297Z,2.33
2023-05-14T08:51:10.376Z,2.30
2023-05-14T08:53:13.709Z,1.77
2023-05-14T08:55:17.287Z,2.20
2023-05-14T08:57:24.696Z,1.87
2023-05-14T08:59:28.269Z,2.50
2023-05-14T09:01:31.894Z,1.87
2023-05-14T09:03:36.062Z,1.60
2023-05-14T09:05:41.761Z,1.70
2023-05-14T09:07:45.131Z,1.30
2023-05-14T09:09:49.430Z,1.37
2023-05-14T09:11:54.260Z,1.57
2023-05-14T09:13:57.660Z,1.70
2023-05-14T09:16:02.035Z,1.20
2023-05-14T09:18:06.905Z,1.77
2023-05-14T09:20:12.324Z,1.20
2023-05-14T09:22:18.774Z,1.50
2023-05-14T09:24:23.316Z,1.90
2023-05-14T09:26:27.944Z,1.50
2023-05-14T09:28:32.270Z,1.50
2023-05-14T09:30:37.137Z,1.30
2023-05-14T09:32:42.557Z,1.40
2023-05-14T09:34:45.807Z,1.53
2023-05-14T09:36:49.135Z,1.40
2023-05-14T09:38:53.744Z,2.63
2023-05-14T09:40:57.525Z,2.63
2023-05-14T09:43:01.964Z,5.50
2023-05-14T09:45:05.915Z,3.93
2023-05-14T09:47:09.921Z,3.27
2023-05-14T09:49:13.286Z,2.77
2023-05-14T09:51:18.370Z,1.70
2023-05-14T09:53:21.890Z,1.73
2023-05-14T09:55:27.740Z,1.63
2023-05-14T09:57:31.120Z,1.30
2023-05-14T09:59:34.392Z,1.23
2023-05-14T10:01:39.450Z,1.13
2023-05-14T10:03:43.056Z,1.57
2023-05-14T10:05:51.127Z,1.33
2023-05-14T10:07:58.342Z,1.20
2023-05-14T10:10:06.398Z,1.63
2023-05-14T10:12:11.920Z,1.57
2023-05-14T10:14:20.262Z,1.47
2023-05-14T10:16:29.447Z,1.33
2023-05-14T10:18:37.784Z,1.27
2023-05-14T10:20:42.320Z,1.43
2023-05-14T10:22:45.633Z,1.50
2023-05-14T10:24:52.446Z,1.13
2023-05-14T10:26:56.249Z,1.20
2023-05-14T10:29:01.029Z,1.03
2023-05-14T10:31:04.568Z,1.30
2023-05-14T10:33:09.396Z,1.40
2023-05-14T10:35:18.406Z,0.90
2023-05-14T10:37:24.488Z,1.10
2023-05-14T10:39:42.650Z,1.13
2023-05-14T10:41:46.048Z,1.10
2023-05-14T10:43:49.625Z,1.20
2023-05-14T10:45:54.834Z,1.37
2023-05-14T10:47:58.700Z,1.07
2023-05-14T10:50:04.832Z,1.20
2023-05-14T10:52:10.408Z,1.10
2023-05-14T10:54:13.979Z,1.20
2023-05-14T10:56:17.596Z,1.30
2023-05-14T10:58:20.859Z,1.03
2023-05-14T11:00:28.497Z,0.97
2023-05-14T11:02:34.971Z,1.43
2023-05-14T11:04:38.577Z,1.10
2023-05-14T11:06:43.754Z,1.07
2023-05-14T11:08:47.141Z,1.23
2023-05-14T11:10:50.638Z,1.10
2023-05-14T11:12:54.056Z,1.23
2023-05-14T11:15:00.311Z,0.80
2023-05-14T11:17:04.229Z,1.47
2023-05-14T11:19:11.475Z,0.70
2023-05-14T11:21:15.156Z,1.17
2023-05-14T11:23:18.376Z,0.77
2023-05-14T11:25:22.943Z,0.80
2023-05-14T11:27:26.714Z,0.80
2023-05-14T11:29:30.281Z,0.80
2023-05-14T11:31:33.894Z,1.13
2023-05-14T11:33:37.641Z,0.73
2023-05-14T11:35:45.490Z,1.00
2023-05-14T11:37:52.882Z,0.80
2023-05-14T11:39:57.391Z,0.80
2023-05-14T11:42:03.916Z,0.90
2023-05-14T11:44:09.207Z,1.00
2023-05-14T11:46:18.713Z,1.20
2023-05-14T11:48:23.055Z,1.33
2023-05-14T11:50:26.588Z,0.80
2023-05-14T11:52:31.396Z,0.90
2023-05-14T11:54:35.809Z,0.80
2023-05-14T11:56:39.116Z,1.00
2023-05-14T11:58:42.823Z,0.80
2023-05-14T12:00:46.750Z,0.90
2023-05-14T12:02:50.451Z,0.80
2023-05-14T12:04:55.053Z,0.87
2023-05-14T12:07:02.441Z,0.90
2023-05-14T12:09:08.232Z,1.07
2023-05-14T12:11:11.507Z,1.03
2023-05-14T12:13:17.030Z,1.10
2023-05-14T12:15:22.252Z,1.10
2023-05-14T12:17:25.788Z,1.13
2023-05-14T12:19:31.374Z,0.90
2023-05-14T12:21:36.691Z,1.10
2023-05-14T12:23:40.570Z,0.80
2023-05-14T12:25:52.844Z,0.70
2023-05-14T12:27:56.280Z,0.80
2023-05-14T12:30:19.827Z,0.80
2023-05-14T12:32:27.101Z,1.00
2023-05-14T12:34:30.606Z,0.60
2023-05-14T12:36:33.794Z,0.90
2023-05-14T12:38:41.006Z,1.30
2023-05-14T12:40:44.170Z,0.70
2023-05-14T12:42:50.438Z,0.87
2023-05-14T12:44:53.773Z,0.80
2023-05-14T12:46:57.892Z,0.50
2023-05-14T12:49:02.447Z,0.60
2023-05-14T12:51:06.250Z,0.70
2023-05-14T12:53:09.456Z,0.77
2023-05-14T12:55:12.665Z,1.50
2023-05-14T12:57:16.116Z,1.20
2023-05-14T12:59:21.095Z,1.00
2023-05-14T13:01:24.828Z,0.60
2023-05-14T13:03:28.138Z,0.50
2023-05-14T13:05:31.681Z,0.60
2023-05-14T13:07:35.274Z,0.50
2023-05-14T13:09:38.419Z,0.50
2023-05-14T13:11:41.641Z,0.47
2023-05-14T13:13:44.841Z,0.50
2023-05-14T13:15:50.213Z,0.50
2023-05-14T13:17:53.672Z,0.50
2023-05-14T13:19:56.918Z,0.50
2023-05-14T13:22:00.115Z,0.70
2023-05-14T13:24:03.428Z,0.40
2023-05-14T13:26:07.140Z,0.57
2023-05-14T13:28:10.735Z,0.50
2023-05-14T13:30:14.725Z,0.73
2023-05-14T13:32:19.428Z,0.50
2023-05-14T13:34:22.624Z,0.50
2023-05-14T13:36:25.828Z,0.40
2023-05-14T13:38:29.263Z,0.47
2023-05-14T13:40:32.737Z,0.50
2023-05-14T13:42:36.183Z,0.40
2023-05-14T13:44:39.576Z,0.50
2023-05-14T13:46:43.558Z,0.50
2023-05-14T13:48:48.151Z,0.40
2023-05-14T13:50:51.997Z,0.60
2023-05-14T13:52:55.139Z,0.60
2023-05-14T13:54:58.489Z,0.60
2023-05-14T13:57:01.974Z,0.80
2023-05-14T13:59:06.024Z,0.53
2023-05-14T14:01:09.302Z,0.63
2023-05-14T14:03:12.824Z,0.40
2023-05-14T14:05:17.645Z,0.60
2023-05-14T14:07:21.249Z,0.50
2023-05-14T14:09:25.046Z,0.50
2023-05-14T14:11:28.716Z,0.70
2023-05-14T14:13:32.359Z,0.40
2023-05-14T14:15:35.611Z,0.40
2023-05-14T14:17:39.495Z,0.40
2023-05-14T14:19:43.090Z,0.40
2023-05-14T14:21:47.779Z,0.50
2023-05-14T14:23:51.477Z,0.47
2023-05-14T14:25:54.709Z,0.40
2023-05-14T14:27:58.314Z,0.50
2023-05-14T14:30:02.990Z,0.50
2023-05-14T14:32:07.242Z,0.60
2023-05-14T14:34:10.976Z,0.50
2023-05-14T14:36:14.356Z,0.60
2023-05-14T14:38:18.971Z,0.40
2023-05-14T14:40:23.819Z,0.60
2023-05-14T14:42:27.156Z,0.40
2023-05-14T14:44:30.681Z,0.50
2023-05-14T14:46:34.354Z,0.50
2023-05-14T14:48:38.771Z,0.47
2023-05-14T14:50:42.085Z,0.50
2023-05-14T14:52:47.944Z,0.67
2023-05-14T14:54:52.943Z,0.57
2023-05-14T14:56:56.227Z,0.70
2023-05-14T14:58:59.414Z,0.60
2023-05-14T15:01:02.923Z,0.50
2023-05-14T15:03:06.491Z,0.50
2023-05-14T15:05:10.953Z,0.50
2023-05-14T15:07:16.079Z,0.57
2023-05-14T15:09:19.364Z,0.40
2023-05-14T15:11:24.284Z,0.50
2023-05-14T15:13:28.347Z,0.50
2023-05-14T15:15:31.812Z,0.47
2023-05-14T15:17:35.237Z,0.70
2023-05-14T15:19:38.471Z,0.80
2023-05-14T15:21:41.993Z,0.40
2023-05-14T15:23:45.155Z,0.73
2023-05-14T15:25:49.444Z,0.60
2023-05-14T15:27:54.956Z,0.50
2023-05-14T15:29:58.633Z,0.63
2023-05-14T15:32:02.282Z,0.60
2023-05-14T15:34:06.157Z,0.60
2023-05-14T15:36:10.349Z,0.57
2023-05-14T15:38:13.745Z,0.60
2023-05-14T15:40:17.539Z,0.50
2023-05-14T15:42:22.048Z,0.60
2023-05-14T15:44:26.917Z,0.50
2023-05-14T15:46:30.426Z,0.53
2023-05-14T15:48:33.970Z,0.50
2023-05-14T15:50:37.959Z,0.50
2023-05-14T15:52:41.847Z,0.63
2023-05-14T15:54:47.226Z,0.60
2023-05-14T15:56:50.963Z,0.90
2023-05-14T15:58:54.513Z,0.60
2023-05-14T16:00:59.569Z,0.57
2023-05-14T16:03:03.405Z,0.70
2023-05-14T16:05:08.702Z,0.60
2023-05-14T16:07:13.202Z,0.73
2023-05-14T16:09:16.504Z,0.50
2023-05-14T16:11:19.978Z,0.73
2023-05-14T16:13:23.690Z,0.73
2023-05-14T16:15:26.960Z,0.60
2023-05-14T16:17:32.895Z,0.70
2023-05-14T16:19:36.357Z,0.80
2023-05-14T16:21:39.761Z,0.97
2023-05-14T16:23:43.206Z,0.90
2023-05-14T16:25:46.561Z,0.67
2023-05-14T16:27:50.093Z,1.40
2023-05-14T16:29:53.529Z,0.67
2023-05-14T16:31:57.401Z,0.97
2023-05-14T16:34:02.046Z,0.70
2023-05-14T16:36:05.939Z,0.60
2023-05-14T16:38:09.122Z,0.67
2023-05-14T16:40:13.817Z,0.50
2023-05-14T16:42:17.326Z,0.50
2023-05-14T16:44:20.523Z,0.43
2023-05-14T16:46:23.827Z,0.50
2023-05-14T16:48:27.711Z,0.63
2023-05-14T16:50:32.571Z,0.50
2023-05-14T16:52:36.003Z,0.50
2023-05-14T16:54:39.338Z,0.60
2023-05-14T16:56:47.886Z,0.80
2023-05-14T16:58:51.472Z,1.17
2023-05-14T17:00:54.649Z,0.90
2023-05-14T17:02:57.903Z,0.87
2023-05-14T17:05:01.446Z,0.60
2023-05-14T17:07:06.556Z,0.83
2023-05-14T17:09:10.262Z,0.50
2023-05-14T17:11:13.448Z,0.70
2023-05-14T17:13:16.780Z,0.67
2023-05-14T17:15:20.237Z,0.50
2023-05-14T17:17:23.460Z,0.30
2023-05-14T17:19:26.800Z,0.40
2023-05-14T17:21:30.089Z,0.50
2023-05-14T17:23:35.077Z,0.60
2023-05-14T17:25:38.717Z,0.60
2023-05-14T17:27:42.181Z,0.50
2023-05-14T17:29:45.584Z,0.60
2023-05-14T17:31:49.248Z,0.53
2023-05-14T17:33:53.070Z,1.00
2023-05-14T17:35:57.404Z,0.50
2023-05-14T17:38:00.864Z,0.53
2023-05-14T17:40:06.835Z,0.50
2023-05-14T17:42:11.074Z,0.53
2023-05-14T17:44:14.535Z,0.70
2023-05-14T17:46:17.957Z,0.70
2023-05-14T17:48:21.446Z,0.60
2023-05-14T17:50:24.707Z,0.73
2023-05-14T17:52:28.101Z,0.57
2023-05-14T17:54:31.812Z,0.60
2023-05-14T17:56:36.800Z,0.50
2023-05-14T17:58:40.085Z,0.40
2023-05-14T18:00:44.274Z,0.50
2023-05-14T18:02:47.889Z,0.60
2023-05-14T18:04:51.474Z,0.93
2023-05-14T18:06:55.149Z,0.50
2023-05-14T18:08:58.941Z,0.60
2023-05-14T18:11:02.349Z,0.50
2023-05-14T18:13:07.063Z,0.57
2023-05-14T18:15:11.112Z,0.83
2023-05-14T18:17:14.578Z,1.07
2023-05-14T18:19:18.570Z,0.50
2023-05-14T18:21:22.213Z,0.70
2023-05-14T18:23:25.770Z,0.63
2023-05-14T18:25:29.047Z,2.43
2023-05-14T18:27:32.395Z,1.40
2023-05-14T18:29:37.073Z,1.60
2023-05-14T18:31:40.484Z,2.10
2023-05-14T18:33:44.272Z,2.10
2023-05-14T18:35:47.859Z,1.60
2023-05-14T18:37:51.452Z,1.50
2023-05-14T18:39:55.055Z,1.80
2023-05-14T18:41:58.549Z,2.20
2023-05-14T18:44:02.288Z,1.70
2023-05-14T18:46:06.984Z,1.70
2023-05-14T18:48:10.790Z,2.30
2023-05-14T18:50:14.264Z,1.87
2023-05-14T18:52:17.531Z,1.83
2023-05-14T18:54:21.068Z,1.70
2023-05-14T18:56:25.774Z,1.83
2023-05-14T18:58:29.456Z,1.70
2023-05-14T19:00:32.919Z,2.13
2023-05-14T19:02:37.886Z,1.90
2023-05-14T19:04:51.261Z,1.70
2023-05-14T19:06:55.646Z,1.57
2023-05-14T19:08:59.552Z,1.40
2023-05-14T19:11:02.989Z,1.03
2023-05-14T19:13:06.295Z,1.30
2023-05-14T19:15:10.234Z,1.57
2023-05-14T19:17:13.559Z,1.80
2023-05-14T19:19:18.382Z,1.93
2023-05-14T19:21:21.840Z,1.87
2023-05-14T19:23:25.390Z,2.00
2023-05-14T19:25:29.286Z,1.53
2023-05-14T19:27:33.179Z,2.03
2023-05-14T19:29:37.789Z,2.10
2023-05-14T19:31:41.077Z,1.30
2023-05-14T19:33:44.562Z,1.60
2023-05-14T19:35:49.235Z,2.50
2023-05-14T19:37:52.922Z,1.97
2023-05-14T19:39:56.205Z,1.60
2023-05-14T19:41:59.467Z,2.40
2023-05-14T19:44:02.754Z,2.60
2023-05-14T19:46:06.486Z,1.47
2023-05-14T19:48:10.411Z,1.90
2023-05-14T19:50:13.950Z,2.83
2023-05-14T19:52:18.868Z,2.03
2023-05-14T19:54:22.349Z,3.17
2023-05-14T19:56:27.335Z,2.40
2023-05-14T19:58:30.742Z,2.43
2023-05-14T20:00:34.142Z,2.20
2023-05-14T20:02:37.455Z,1.97
2023-05-14T20:04:41.180Z,2.03
2023-05-14T20:06:45.580Z,2.50
2023-05-14T20:08:51.585Z,2.60
2023-05-14T20:10:54.864Z,2.30
2023-05-14T20:12:58.181Z,2.30
2023-05-14T20:15:01.461Z,2.47
2023-05-14T20:17:04.829Z,2.83
2023-05-14T20:19:08.698Z,2.23
2023-05-14T20:21:12.236Z,2.63
2023-05-14T20:23:15.837Z,2.10
2023-05-14T20:25:20.810Z,2.33
2023-05-14T20:27:24.151Z,1.80
2023-05-14T20:29:27.538Z,2.13
2023-05-14T20:31:31.125Z,2.20
2023-05-14T20:33:34.402Z,2.10
2023-05-14T20:35:37.624Z,2.13
2023-05-14T20:37:41.324Z,2.50
2023-05-14T20:39:44.607Z,2.30
2023-05-14T20:41:49.215Z,2.20
2023-05-14T20:43:52.646Z,2.77
2023-05-14T20:45:58.358Z,2.07
2023-05-14T20:48:01.660Z,2.73
2023-05-14T20:50:05.483Z,2.87
2023-05-14T20:52:08.638Z,2.63
2023-05-14T20:54:12.112Z,3.20
2023-05-14T20:56:15.452Z,3.30
2023-05-14T20:58:20.556Z,2.80
2023-05-14T21:00:27.303Z,2.43
2023-05-14T21:02:30.645Z,2.60
2023-05-14T21:04:34.970Z,2.10
2023-05-14T21:06:38.409Z,3.00
2023-05-14T21:08:41.553Z,3.30
2023-05-14T21:10:44.707Z,3.47
2023-05-14T21:12:48.235Z,3.47
2023-05-14T21:14:52.885Z,3.43
2023-05-14T21:16:56.095Z,2.63
2023-05-14T21:18:59.662Z,2.50
2023-05-14T21:21:03.286Z,2.13
2023-05-14T21:23:06.698Z,2.47
2023-05-14T21:25:11.109Z,2.37
2023-05-14T21:27:14.584Z,1.63
2023-05-14T21:29:17.961Z,2.00
2023-05-14T21:31:22.943Z,2.60
2023-05-14T21:33:26.326Z,1.60
2023-05-14T21:35:29.791Z,2.30
2023-05-14T21:37:34.357Z,2.50
2023-05-14T21:39:37.744Z,3.03
2023-05-14T21:41:41.460Z,2.10
2023-05-14T21:43:45.247Z,2.80
2023-05-14T21:45:48.635Z,2.60
2023-05-14T21:47:54.209Z,2.37
2023-05-14T21:49:57.488Z,2.80
2023-05-14T21:52:01.059Z,3.30
2023-05-14T21:54:04.875Z,2.70
2023-05-14T21:56:08.412Z,2.93
2023-05-14T21:58:11.616Z,3.80
2023-05-14T22:00:18.719Z,4.03
2023-05-14T22:02:22.228Z,4.60
2023-05-14T22:04:26.919Z,4.37
2023-05-14T22:06:30.368Z,4.43
2023-05-14T22:08:33.900Z,3.57
2023-05-14T22:10:37.440Z,3.83
2023-05-14T22:12:40.821Z,4.97
2023-05-14T22:14:44.290Z,4.43
2023-05-14T22:16:47.818Z,4.43
2023-05-14T22:18:51.155Z,4.00
2023-05-14T22:20:55.753Z,4.40
2023-05-14T22:22:59.025Z,3.60
2023-05-14T22:25:02.578Z,4.00
2023-05-14T22:27:06.429Z,3.80
2023-05-14T22:29:09.692Z,5.07
2023-05-14T22:31:12.934Z,3.90
2023-05-14T22:33:16.355Z,4.30
2023-05-14T22:35:19.706Z,4.00
2023-05-14T22:37:24.430Z,4.53
2023-05-14T22:39:27.718Z,4.53
2023-05-14T22:41:31.432Z,3.63
2023-05-14T22:43:34.724Z,4.70
2023-05-14T22:45:38.039Z,4.03
2023-05-14T22:47:41.472Z,3.90
2023-05-14T22:49:44.772Z,4.07
2023-05-14T22:51:47.992Z,4.57
2023-05-14T22:53:52.906Z,3.90
2023-05-14T22:55:56.123Z,4.30
2023-05-14T22:57:59.518Z,3.80
2023-05-14T23:00:04.505Z,4.23
2023-05-14T23:02:08.260Z,3.40
2023-05-14T23:04:11.662Z,4.40
2023-05-14T23:06:15.263Z,4.40
2023-05-14T23:08:18.545Z,3.73
2023-05-14T23:10:23.426Z,3.70
2023-05-14T23:12:26.687Z,4.57
2023-05-14T23:14:30.075Z,3.00
2023-05-14T23:16:34.234Z,3.73
2023-05-14T23:18:37.570Z,3.50
2023-05-14T23:20:42.352Z,4.03
2023-05-14T23:22:46.035Z,3.87
2023-05-14T23:24:49.173Z,3.00
2023-05-14T23:26:54.054Z,3.70
2023-05-14T23:28:57.214Z,4.20
2023-05-14T23:31:00.579Z,3.60
2023-05-14T23:33:03.875Z,4.47
2023-05-14T23:35:07.615Z,3.97
2023-05-14T23:37:10.892Z,5.10
2023-05-14T23:39:14.470Z,4.50
2023-05-14T23:41:17.620Z,5.33
2023-05-14T23:43:22.468Z,4.50
2023-05-14T23:45:26.159Z,4.10
2023-05-14T23:47:29.771Z,3.97
2023-05-14T23:49:32.950Z,4.43
2023-05-14T23:51:36.959Z,6.30
2023-05-14T23:53:40.064Z,5.17
2023-05-14T23:55:43.308Z,5.60
2023-05-14T23:57:46.728Z,5.43
2023-05-14T23:59:51.693Z,4.47
